If you wish to contribute or participate in the discussions about articles you are invited to join SKYbrary as a registered user

 Actions

London Luton Airport

From SKYbrary Wiki

EGGW /
Revision as of 22:59, 11 March 2010 by Timo.Kouwenhoven (talk | contribs) (Created page with '{{Airport |Airport_Name=London Luton Airport |ICAO_Region=EUR |ICAO_Territory=EG |Location=Luton, Bedfordshire, United Kingdom |Coordinates=51.87815° N, 0.3755279° W }}')
(diff) ← Older revision | Latest revision (diff) | Newer revision → (diff)
Airport
ICAO: EGGW
Summary
Name London Luton Airport
Region Europe
Territory United Kingdom GB.gif
Location Luton, Bedfordshire, United Kingdom
Serving
Coordinates 51° 52' 41.34" N, 0° 22' 31.90" W
Runways
Designator Length Width Surface ROPS
8/26 2160 m7,086.614 ft <br /> 46 m150.919 ft <br /> ASP yes/yes


METAR
Observation EGGW 180250Z AUTO 22006KT 9999 NCD 01/01 Q1023
Station Luton Airport
Date/Time 18 January 2021 02:50:00
Wind direction 220°
Wind speed 06 kts
Lowest cloud amount no clouds detected
Temperature 1°C
Dew point 1°C
Humidity 100%
QNH 1023 hPa
Weather condition n/a